Airfield :
LOGIN :

Register | Disclaimer

   EN    FR    IT 

 










Legend :    VFR   Marginal VFR   IFR   Intensive IFR   Very Intensive IFR
Visi :
Ceiling :
>= 8 km
>= 3000ft
5 to 8 km
1000 to 3000 ft
1500m to 5 km
500 to 1000 ft
800 to 1500m
200 to 500 ft
< 800m
< 200 ft
Symbols :   Thunderstorms  Fog  Heavy snow  Heavy precipitations  Wind > 20 kt
SIGMETs :     Misc.  Thunderstorms  Icing  Turbulence  Mountain Waves  Volcanic Ashes






- Airport Elevation : 479 ft
- IATA code : DOL


LFRG - Deauville

CURRENT METAR :
  • 230800Z AUTO 19006KT 0900 R30/1400U FG VV/// 11/11 Q1012 BECMG 9999 NSW BKN020

EXPIRED METARs :
  • 230730Z AUTO 19006KT 0400 0350 R30/0500D FG VV/// 11/11 Q1011 BECMG 9999 NSW BKN020
  • 230700Z AUTO 19006KT 0750 0550 R30/1100D FG VV/// 11/11 Q1011 BECMG 9999 NSW SCT015 SCT020
  • 230630Z AUTO 20006KT 0400 R30/0500D FG VV/// 11/11 Q1011 BECMG 9999 NSW SCT015 SCT020
  • 230600Z AUTO 19006KT 6000 NSC 11/10 Q1010 NOSIG
  • 230530Z AUTO 19005KT 5000 BR NSC 11/11 Q1010 NOSIG

TAF AMD TAF LFRG
Valid from the 23 at 07:00 until the 23 at 15:00 UTC


230708Z 2307/2315 20006KT 0500 FG VV///
BECMG 2307/2309 9999 NSW BKN007
BECMG 2309/2311 BKN020
BECMG 2311/2313 24015G25KT
TEMPO 2313/2315 SHRA SCT012TCU
ATIS : +33 2 31 65 65 36



MET'MAP, your aeronautical weather chart ! - Copyright ORBIFLY December 2007 - Disclaimer

ORBIFLY MET'MAP TEAM :

Programming & Development : Alexandra Zaïnal
Concept & original design : Baudouin d'Aumeries
Assistance for programming : Marc-Olivier Méhu
Technical & hardware support : Manuel Goepfert

Contact : metmap@orbifly.com




SOURCES & CREDITS :

   NOAA